createdAt,value
2022-08-28T00:00:13.366Z,25.97
2022-08-28T00:02:40.588Z,25.97
2022-08-28T00:05:08.370Z,25.95
2022-08-28T00:07:35.439Z,25.94
2022-08-28T00:10:02.216Z,25.91
2022-08-28T00:12:28.805Z,25.88
2022-08-28T00:14:55.331Z,25.88
2022-08-28T00:17:21.937Z,25.87
2022-08-28T00:19:48.613Z,25.88
2022-08-28T00:22:15.200Z,25.86
2022-08-28T00:24:43.099Z,25.83
2022-08-28T00:27:28.126Z,25.81
2022-08-28T00:29:54.817Z,25.81
2022-08-28T00:32:23.566Z,25.86
2022-08-28T00:34:51.115Z,25.82
2022-08-28T00:37:20.169Z,25.81
2022-08-28T00:39:51.568Z,25.85
2022-08-28T00:42:18.442Z,25.93
2022-08-28T00:44:45.455Z,25.98
2022-08-28T00:47:12.578Z,25.92
2022-08-28T00:49:46.302Z,25.91
2022-08-28T00:52:15.412Z,25.90
2022-08-28T00:55:03.449Z,25.85
2022-08-28T00:57:42.344Z,25.83
2022-08-28T01:00:15.519Z,25.84
2022-08-28T01:02:42.301Z,25.83
2022-08-28T01:05:10.369Z,25.80
2022-08-28T01:07:38.316Z,25.82
2022-08-28T01:10:09.101Z,25.86
2022-08-28T01:12:35.946Z,25.88
2022-08-28T01:15:09.400Z,25.84
2022-08-28T01:17:36.126Z,25.87
2022-08-28T01:20:10.732Z,25.88
2022-08-28T01:22:54.056Z,25.92
2022-08-28T01:25:22.344Z,25.99
2022-08-28T01:27:48.905Z,25.99
2022-08-28T01:30:17.838Z,25.99
2022-08-28T01:32:47.627Z,25.86
2022-08-28T01:35:17.834Z,25.84
2022-08-28T01:37:45.712Z,25.78
2022-08-28T01:40:16.109Z,25.85
2022-08-28T01:42:43.540Z,25.89
2022-08-28T01:45:14.478Z,25.89
2022-08-28T01:47:43.715Z,25.82
2022-08-28T01:50:13.009Z,25.70
2022-08-28T01:52:40.413Z,25.61
2022-08-28T01:55:08.126Z,25.55
2022-08-28T01:57:35.656Z,25.50
2022-08-28T02:00:02.484Z,25.44
2022-08-28T02:02:29.252Z,25.38
2022-08-28T02:04:55.803Z,25.35
2022-08-28T02:07:22.481Z,25.29
2022-08-28T02:09:49.075Z,25.26
2022-08-28T02:12:15.719Z,25.23
2022-08-28T02:14:42.372Z,25.23
2022-08-28T02:17:08.871Z,25.29
2022-08-28T02:19:35.462Z,25.37
2022-08-28T02:22:04.003Z,25.46
2022-08-28T02:24:30.612Z,25.56
2022-08-28T02:26:57.167Z,25.60
2022-08-28T02:29:23.793Z,25.65
2022-08-28T02:31:50.473Z,25.71
2022-08-28T02:34:17.346Z,25.74
2022-08-28T02:36:43.937Z,25.71
2022-08-28T02:39:10.593Z,25.70
2022-08-28T02:41:37.501Z,25.77
2022-08-28T02:44:04.174Z,25.82
2022-08-28T02:46:30.814Z,25.83
2022-08-28T02:48:57.446Z,25.77
2022-08-28T02:51:24.111Z,25.61
2022-08-28T02:53:52.150Z,25.39
2022-08-28T02:56:18.936Z,25.42
2022-08-28T02:58:45.657Z,25.41
2022-08-28T03:01:13.699Z,25.28
2022-08-28T03:03:41.615Z,25.19
2022-08-28T03:06:09.831Z,25.12
2022-08-28T03:08:38.943Z,25.05
2022-08-28T03:11:06.800Z,25.02
2022-08-28T03:13:33.407Z,24.95
2022-08-28T03:16:00.083Z,24.92
2022-08-28T03:18:30.306Z,24.91
2022-08-28T03:20:57.040Z,24.90
2022-08-28T03:23:26.775Z,24.88
2022-08-28T03:26:03.073Z,24.86
2022-08-28T03:28:33.383Z,24.94
2022-08-28T03:31:00.205Z,25.05
2022-08-28T03:33:27.617Z,25.14
2022-08-28T03:35:55.578Z,25.17
2022-08-28T03:38:22.452Z,25.18
2022-08-28T03:40:52.382Z,25.12
2022-08-28T03:43:22.857Z,25.07
2022-08-28T03:45:59.907Z,25.08
2022-08-28T03:48:27.761Z,25.16
2022-08-28T03:50:55.395Z,25.16
2022-08-28T03:53:23.893Z,25.15
2022-08-28T03:55:50.508Z,25.27
2022-08-28T03:58:18.854Z,25.33
2022-08-28T04:00:46.341Z,25.36
2022-08-28T04:03:13.640Z,25.39
2022-08-28T04:05:41.621Z,25.37
2022-08-28T04:08:08.420Z,25.28
2022-08-28T04:10:35.905Z,25.23
2022-08-28T04:13:03.365Z,25.14
2022-08-28T04:15:29.948Z,25.11
2022-08-28T04:17:56.571Z,25.07
2022-08-28T04:20:23.167Z,25.02
2022-08-28T04:22:50.020Z,25.04
2022-08-28T04:25:22.633Z,25.10
2022-08-28T04:27:50.297Z,25.18
2022-08-28T04:30:17.575Z,25.16
2022-08-28T04:32:45.686Z,25.14
2022-08-28T04:35:13.391Z,25.12
2022-08-28T04:37:40.481Z,25.08
2022-08-28T04:40:11.240Z,25.09
2022-08-28T04:42:38.716Z,25.11
2022-08-28T04:45:06.317Z,25.15
2022-08-28T04:47:37.268Z,25.14
2022-08-28T04:50:04.926Z,25.09
2022-08-28T04:52:31.512Z,25.07
2022-08-28T04:54:58.051Z,24.94
2022-08-28T04:57:26.275Z,24.81
2022-08-28T04:59:52.980Z,24.70
2022-08-28T05:02:19.664Z,24.57
2022-08-28T05:04:47.298Z,24.47
2022-08-28T05:07:14.032Z,24.42
2022-08-28T05:09:40.586Z,24.39
2022-08-28T05:12:07.229Z,24.39
2022-08-28T05:14:34.059Z,24.38
2022-08-28T05:17:00.633Z,24.35
2022-08-28T05:19:28.236Z,24.34
2022-08-28T05:21:55.297Z,24.30
2022-08-28T05:24:22.458Z,24.29
2022-08-28T05:26:49.224Z,24.30
2022-08-28T05:29:16.990Z,24.30
2022-08-28T05:31:44.005Z,24.30
2022-08-28T05:34:10.753Z,24.30
2022-08-28T05:36:38.687Z,24.32
2022-08-28T05:39:08.326Z,24.34
2022-08-28T05:41:34.993Z,24.37
2022-08-28T05:44:06.447Z,24.43
2022-08-28T05:46:35.117Z,24.38
2022-08-28T05:49:09.075Z,24.41
2022-08-28T05:51:36.828Z,24.47
2022-08-28T05:54:03.838Z,24.48
2022-08-28T05:56:34.432Z,24.48
2022-08-28T05:59:02.301Z,24.49
2022-08-28T06:01:31.280Z,24.50
2022-08-28T06:04:00.612Z,24.52
2022-08-28T06:06:30.834Z,24.49
2022-08-28T06:08:59.624Z,24.45
2022-08-28T06:11:30.487Z,24.43
2022-08-28T06:14:03.186Z,24.41
2022-08-28T06:16:31.903Z,24.37
2022-08-28T06:18:59.070Z,24.32
2022-08-28T06:21:26.163Z,24.31
2022-08-28T06:23:52.879Z,24.33
2022-08-28T06:26:19.440Z,24.33
2022-08-28T06:28:46.078Z,24.33
2022-08-28T06:31:23.461Z,24.35
2022-08-28T06:33:54.166Z,24.38
2022-08-28T06:36:21.084Z,24.40
2022-08-28T06:38:47.619Z,24.42
2022-08-28T06:41:15.644Z,24.47
2022-08-28T06:43:42.999Z,24.51
2022-08-28T06:46:09.743Z,24.54
2022-08-28T06:48:36.601Z,24.59
2022-08-28T06:51:06.532Z,24.62
2022-08-28T06:53:33.912Z,24.65
2022-08-28T06:56:18.426Z,24.73
2022-08-28T06:58:54.539Z,24.83
2022-08-28T07:01:24.406Z,24.96
2022-08-28T07:03:53.377Z,25.12
2022-08-28T07:06:21.718Z,25.30
2022-08-28T07:08:48.790Z,25.40
2022-08-28T07:11:26.060Z,25.49
2022-08-28T07:13:54.120Z,25.58
2022-08-28T07:16:23.243Z,25.68
2022-08-28T07:18:50.186Z,25.88
2022-08-28T07:21:17.446Z,26.12
2022-08-28T07:23:44.956Z,26.36
2022-08-28T07:26:14.309Z,26.62
2022-08-28T07:28:41.462Z,26.86
2022-08-28T07:31:11.504Z,27.00
2022-08-28T07:33:39.755Z,27.00
2022-08-28T07:36:09.088Z,27.02
2022-08-28T07:38:42.831Z,27.06
2022-08-28T07:41:14.238Z,27.16
2022-08-28T07:43:59.837Z,27.26
2022-08-28T07:46:26.541Z,27.37
2022-08-28T07:48:53.838Z,27.51
2022-08-28T07:51:20.918Z,27.71
2022-08-28T07:53:47.661Z,27.81
2022-08-28T07:56:14.392Z,27.92
2022-08-28T07:58:40.988Z,28.01
2022-08-28T08:01:07.696Z,28.11
2022-08-28T08:03:34.590Z,28.25
2022-08-28T08:06:03.839Z,28.34
2022-08-28T08:08:31.774Z,28.43
2022-08-28T08:11:01.468Z,28.31
2022-08-28T08:13:29.613Z,28.17
2022-08-28T08:16:06.607Z,28.06
2022-08-28T08:18:33.810Z,28.05
2022-08-28T08:21:01.608Z,28.17
2022-08-28T08:23:28.296Z,28.08
2022-08-28T08:26:00.706Z,28.25
2022-08-28T08:28:28.478Z,28.28
2022-08-28T08:31:13.389Z,28.35
2022-08-28T08:33:44.721Z,28.51
2022-08-28T08:36:13.224Z,28.63
2022-08-28T08:38:39.776Z,28.69
2022-08-28T08:41:30.577Z,28.80
2022-08-28T08:44:03.101Z,28.77
2022-08-28T08:46:44.768Z,28.74
2022-08-28T08:49:17.149Z,28.65
2022-08-28T08:51:50.704Z,28.60
2022-08-28T08:54:21.201Z,28.58
2022-08-28T08:56:48.276Z,28.53
2022-08-28T08:59:21.588Z,28.58
2022-08-28T09:01:56.251Z,28.60
2022-08-28T09:04:34.440Z,28.63
2022-08-28T09:07:20.999Z,28.65
2022-08-28T09:09:53.094Z,28.59
2022-08-28T09:12:23.102Z,28.47
2022-08-28T09:15:05.871Z,28.32
2022-08-28T09:17:37.462Z,28.21
2022-08-28T09:20:09.692Z,28.09
2022-08-28T09:22:40.968Z,27.92
2022-08-28T09:25:07.841Z,27.85
2022-08-28T09:27:44.829Z,27.90
2022-08-28T09:30:11.725Z,28.01
2022-08-28T09:32:44.505Z,28.02
2022-08-28T09:35:15.632Z,28.02
2022-08-28T09:37:43.996Z,28.08
2022-08-28T09:40:18.899Z,28.25
2022-08-28T09:43:21.130Z,28.34
2022-08-28T09:46:01.808Z,28.41
2022-08-28T09:48:37.044Z,28.49
2022-08-28T09:51:13.762Z,28.50
2022-08-28T09:53:52.497Z,28.41
2022-08-28T09:56:22.913Z,28.17
2022-08-28T09:58:52.104Z,28.06
2022-08-28T10:01:46.669Z,28.04
2022-08-28T10:04:45.438Z,28.28
2022-08-28T10:07:33.931Z,28.28
2022-08-28T10:10:21.886Z,28.10
2022-08-28T10:13:06.675Z,28.07
2022-08-28T10:15:43.110Z,28.01
2022-08-28T10:18:30.660Z,27.91
2022-08-28T10:21:35.495Z,27.93
2022-08-28T10:24:35.083Z,27.79
2022-08-28T10:27:22.750Z,27.68
2022-08-28T10:30:12.361Z,27.70
2022-08-28T10:33:09.971Z,27.77
2022-08-28T10:35:57.280Z,27.84
2022-08-28T10:38:42.145Z,28.01
2022-08-28T10:41:17.504Z,28.16
2022-08-28T10:43:48.108Z,28.17
2022-08-28T10:46:17.838Z,28.31
2022-08-28T10:48:55.736Z,28.46
2022-08-28T10:51:44.437Z,28.50
2022-08-28T10:54:23.536Z,28.34
2022-08-28T10:56:59.118Z,28.34
2022-08-28T10:59:27.052Z,28.37
2022-08-28T11:02:04.593Z,28.44
2022-08-28T11:04:31.348Z,28.58
2022-08-28T11:07:06.061Z,28.70
2022-08-28T11:09:46.305Z,28.88
2022-08-28T11:12:19.873Z,28.93
2022-08-28T11:14:49.531Z,28.97
2022-08-28T11:17:22.240Z,28.88
2022-08-28T11:20:03.866Z,28.77
2022-08-28T11:22:53.002Z,28.76
2022-08-28T11:25:26.335Z,28.99
2022-08-28T11:28:13.525Z,29.34
2022-08-28T11:30:41.130Z,29.70
2022-08-28T11:33:11.837Z,29.96
2022-08-28T11:35:49.182Z,30.14
2022-08-28T11:38:41.412Z,30.38
2022-08-28T11:41:21.022Z,30.43
2022-08-28T11:43:49.644Z,30.46
2022-08-28T11:46:17.500Z,30.46
2022-08-28T11:48:49.816Z,30.33
2022-08-28T11:51:52.385Z,30.21
2022-08-28T11:54:57.478Z,30.20
2022-08-28T11:57:42.750Z,30.13
2022-08-28T12:00:46.453Z,29.96
2022-08-28T12:03:39.354Z,29.66
2022-08-28T12:06:07.453Z,29.37
2022-08-28T12:08:47.708Z,29.20
2022-08-28T12:11:39.417Z,29.14
2022-08-28T12:14:20.343Z,29.11
2022-08-28T12:16:59.133Z,29.07
2022-08-28T12:19:55.941Z,29.45
2022-08-28T12:22:42.379Z,29.61
2022-08-28T12:25:20.705Z,29.63
2022-08-28T12:27:48.288Z,29.49
2022-08-28T12:30:28.334Z,29.27
2022-08-28T12:32:59.626Z,29.12
2022-08-28T12:35:29.569Z,29.16
2022-08-28T12:37:57.399Z,29.34
2022-08-28T12:40:50.413Z,29.53
2022-08-28T12:43:43.288Z,29.92
2022-08-28T12:46:21.098Z,30.30
2022-08-28T12:48:51.809Z,30.45
2022-08-28T12:51:24.041Z,30.48
2022-08-28T12:53:53.688Z,30.38
2022-08-28T12:56:21.745Z,30.30
2022-08-28T12:58:49.330Z,30.33
2022-08-28T13:01:31.858Z,30.38
2022-08-28T13:04:04.272Z,30.52
2022-08-28T13:06:33.530Z,30.63
2022-08-28T13:09:06.751Z,30.64
2022-08-28T13:11:43.483Z,30.65
2022-08-28T13:14:10.278Z,30.85
2022-08-28T13:16:43.499Z,30.83
2022-08-28T13:19:11.753Z,30.72
2022-08-28T13:21:52.596Z,30.66
2022-08-28T13:24:22.154Z,30.45
2022-08-28T13:27:18.012Z,30.24
2022-08-28T13:29:57.395Z,30.13
2022-08-28T13:32:27.662Z,30.04
2022-08-28T13:35:04.432Z,29.91
2022-08-28T13:37:51.491Z,29.73
2022-08-28T13:40:53.182Z,29.64
2022-08-28T13:43:10.999Z,29.51
2022-08-28T13:45:43.199Z,29.42
2022-08-28T13:48:12.497Z,29.34
2022-08-28T13:50:41.817Z,29.37
2022-08-28T13:53:13.157Z,29.26
2022-08-28T13:55:41.175Z,29.29
2022-08-28T13:58:07.832Z,29.34
2022-08-28T14:00:37.619Z,29.41
2022-08-28T14:03:23.095Z,29.38
2022-08-28T14:05:49.737Z,29.26
2022-08-28T14:08:16.520Z,29.19
2022-08-28T14:10:43.234Z,29.07
2022-08-28T14:13:09.979Z,28.93
2022-08-28T14:15:36.573Z,28.92
2022-08-28T14:18:03.369Z,28.97
2022-08-28T14:20:30.466Z,29.12
2022-08-28T14:22:57.469Z,29.28
2022-08-28T14:25:24.097Z,29.29
2022-08-28T14:27:50.835Z,29.24
2022-08-28T14:30:17.808Z,29.16
2022-08-28T14:32:44.487Z,29.21
2022-08-28T14:35:11.519Z,29.29
2022-08-28T14:37:38.164Z,29.36
2022-08-28T14:40:06.103Z,29.33
2022-08-28T14:42:32.833Z,29.35
2022-08-28T14:44:59.404Z,29.44
2022-08-28T14:47:26.147Z,29.53
2022-08-28T14:49:55.610Z,29.63
2022-08-28T14:52:22.884Z,29.61
2022-08-28T14:54:49.791Z,29.57
2022-08-28T14:57:16.432Z,29.64
2022-08-28T14:59:43.596Z,29.88
2022-08-28T15:02:12.882Z,29.87
2022-08-28T15:04:39.625Z,29.89
2022-08-28T15:07:10.796Z,29.98
2022-08-28T15:09:40.884Z,30.08
2022-08-28T15:12:08.085Z,30.23
2022-08-28T15:14:36.006Z,30.21
2022-08-28T15:17:03.058Z,30.19
2022-08-28T15:19:30.100Z,30.10
2022-08-28T15:21:57.484Z,29.90
2022-08-28T15:24:28.649Z,29.62
2022-08-28T15:26:55.320Z,29.52
2022-08-28T15:29:22.265Z,29.47
2022-08-28T15:31:50.316Z,29.46
2022-08-28T15:34:19.859Z,29.37
2022-08-28T15:36:54.749Z,29.23
2022-08-28T15:39:41.339Z,29.19
2022-08-28T15:42:08.459Z,29.17
2022-08-28T15:44:35.098Z,29.07
2022-08-28T15:47:02.487Z,28.97
2022-08-28T15:49:32.236Z,28.92
2022-08-28T15:52:03.557Z,28.79
2022-08-28T15:54:32.171Z,28.62
2022-08-28T15:56:59.067Z,28.49
2022-08-28T15:59:25.859Z,28.41
2022-08-28T16:02:12.805Z,28.25
2022-08-28T16:04:39.735Z,28.12
2022-08-28T16:07:09.445Z,28.05
2022-08-28T16:09:36.371Z,28.17
2022-08-28T16:12:03.212Z,28.43
2022-08-28T16:14:32.997Z,28.57
2022-08-28T16:16:59.949Z,28.72
2022-08-28T16:19:32.971Z,28.76
2022-08-28T16:22:00.232Z,28.88
2022-08-28T16:24:26.822Z,28.88
2022-08-28T16:26:53.699Z,28.80
2022-08-28T16:29:21.056Z,28.70
2022-08-28T16:31:49.042Z,28.54
2022-08-28T16:34:19.413Z,28.38
2022-08-28T16:36:50.475Z,28.23
2022-08-28T16:39:17.553Z,28.09
2022-08-28T16:41:49.707Z,27.97
2022-08-28T16:44:21.174Z,27.82
2022-08-28T16:46:47.956Z,27.69
2022-08-28T16:49:15.058Z,27.61
2022-08-28T16:51:44.803Z,27.57
2022-08-28T16:54:11.612Z,27.50
2022-08-28T16:56:38.761Z,27.49
2022-08-28T16:59:10.478Z,27.52
2022-08-28T17:01:40.691Z,27.55
2022-08-28T17:04:09.606Z,27.55
2022-08-28T17:06:36.565Z,27.49
2022-08-28T17:09:03.916Z,27.47
2022-08-28T17:11:31.079Z,27.54
2022-08-28T17:13:58.861Z,27.56
2022-08-28T17:16:34.349Z,27.49
2022-08-28T17:19:01.276Z,27.41
2022-08-28T17:21:46.908Z,27.44
2022-08-28T17:24:14.045Z,27.37
2022-08-28T17:26:42.417Z,27.35
2022-08-28T17:29:09.601Z,27.41
2022-08-28T17:31:37.630Z,27.46
2022-08-28T17:34:05.695Z,27.55
2022-08-28T17:36:34.289Z,27.61
2022-08-28T17:39:08.130Z,27.67
2022-08-28T17:41:35.301Z,27.71
2022-08-28T17:44:02.331Z,27.72
2022-08-28T17:46:31.880Z,27.80
2022-08-28T17:49:01.520Z,27.81
2022-08-28T17:51:36.904Z,27.71
2022-08-28T17:54:10.595Z,27.46
2022-08-28T17:56:37.371Z,27.33
2022-08-28T17:59:04.904Z,27.27
2022-08-28T18:01:31.862Z,27.20
2022-08-28T18:03:58.867Z,27.14
2022-08-28T18:06:25.945Z,27.10
2022-08-28T18:08:52.774Z,27.10
2022-08-28T18:11:19.875Z,27.11
2022-08-28T18:13:46.827Z,27.15
2022-08-28T18:16:13.790Z,27.20
2022-08-28T18:18:41.572Z,27.18
2022-08-28T18:21:12.297Z,27.10
2022-08-28T18:23:39.830Z,27.06
2022-08-28T18:26:09.676Z,27.14
2022-08-28T18:28:36.896Z,27.25
2022-08-28T18:31:06.080Z,27.32
2022-08-28T18:33:33.466Z,27.41
2022-08-28T18:36:00.236Z,27.46
2022-08-28T18:38:28.520Z,27.50
2022-08-28T18:40:56.155Z,27.45
2022-08-28T18:43:24.053Z,27.31
2022-08-28T18:45:51.402Z,27.18
2022-08-28T18:48:19.256Z,27.04
2022-08-28T18:50:47.484Z,26.85
2022-08-28T18:53:19.389Z,26.79
2022-08-28T18:55:46.379Z,26.91
2022-08-28T18:58:15.236Z,26.95
2022-08-28T19:00:42.681Z,26.96
2022-08-28T19:03:09.713Z,26.97
2022-08-28T19:05:38.207Z,27.04
2022-08-28T19:08:06.083Z,27.13
2022-08-28T19:10:34.929Z,27.13
2022-08-28T19:13:02.481Z,27.04
2022-08-28T19:15:29.498Z,26.93
2022-08-28T19:17:56.128Z,26.82
2022-08-28T19:20:23.569Z,26.71
2022-08-28T19:22:50.182Z,26.63
2022-08-28T19:25:27.921Z,26.56
2022-08-28T19:27:56.337Z,26.52
2022-08-28T19:30:27.924Z,26.50
2022-08-28T19:32:54.851Z,26.44
2022-08-28T19:35:24.109Z,26.42
2022-08-28T19:37:54.414Z,26.40
2022-08-28T19:40:22.152Z,26.50
2022-08-28T19:42:50.126Z,26.62
2022-08-28T19:45:17.947Z,26.67
2022-08-28T19:47:44.649Z,26.67
2022-08-28T19:50:13.907Z,26.66
2022-08-28T19:52:40.731Z,26.80
2022-08-28T19:55:08.455Z,27.01
2022-08-28T19:57:35.035Z,27.08
2022-08-28T20:00:02.484Z,27.34
2022-08-28T20:02:29.464Z,27.57
2022-08-28T20:04:56.201Z,27.74
2022-08-28T20:07:24.911Z,27.69
2022-08-28T20:09:52.157Z,27.76
2022-08-28T20:12:18.965Z,27.80
2022-08-28T20:14:45.568Z,27.89
2022-08-28T20:17:14.003Z,27.86
2022-08-28T20:19:40.768Z,27.78
2022-08-28T20:22:07.337Z,27.73
2022-08-28T20:24:34.060Z,27.78
2022-08-28T20:27:01.875Z,27.81
2022-08-28T20:29:28.469Z,27.87
2022-08-28T20:31:55.003Z,27.86
2022-08-28T20:34:21.538Z,27.88
2022-08-28T20:36:49.747Z,27.80
2022-08-28T20:39:16.796Z,27.68
2022-08-28T20:41:44.727Z,27.60
2022-08-28T20:44:13.800Z,27.55
2022-08-28T20:46:42.105Z,27.47
2022-08-28T20:49:10.986Z,27.37
2022-08-28T20:51:53.854Z,27.32
2022-08-28T20:54:39.026Z,27.16
2022-08-28T20:57:10.974Z,27.14
2022-08-28T20:59:39.887Z,27.23
2022-08-28T21:02:17.041Z,27.29
2022-08-28T21:04:45.569Z,27.37
2022-08-28T21:07:13.731Z,27.45
2022-08-28T21:10:05.721Z,27.46
2022-08-28T21:12:27.581Z,27.47
2022-08-28T21:14:54.205Z,27.43
2022-08-28T21:17:29.170Z,27.47
2022-08-28T21:19:57.254Z,27.51
2022-08-28T21:22:23.785Z,27.58
2022-08-28T21:24:50.373Z,27.60
2022-08-28T21:27:18.700Z,27.47
2022-08-28T21:29:46.105Z,27.32
2022-08-28T21:32:12.941Z,27.22
2022-08-28T21:34:39.551Z,27.16
2022-08-28T21:37:06.405Z,27.18
2022-08-28T21:39:33.137Z,27.18
2022-08-28T21:41:59.758Z,27.17
2022-08-28T21:44:26.446Z,27.18
2022-08-28T21:46:53.241Z,27.16
2022-08-28T21:49:19.889Z,27.14
2022-08-28T21:51:46.391Z,27.12
2022-08-28T21:54:13.249Z,27.12
2022-08-28T21:56:39.970Z,27.13
2022-08-28T21:59:06.555Z,27.10
2022-08-28T22:01:33.225Z,27.06
2022-08-28T22:03:59.853Z,26.97
2022-08-28T22:06:26.898Z,26.86
2022-08-28T22:08:54.226Z,26.72
2022-08-28T22:11:24.855Z,26.65
2022-08-28T22:13:52.648Z,26.61
2022-08-28T22:16:19.985Z,26.58
2022-08-28T22:18:46.576Z,26.53
2022-08-28T22:21:33.440Z,26.49
2022-08-28T22:24:00.163Z,26.43
2022-08-28T22:26:27.610Z,26.42
2022-08-28T22:28:55.856Z,26.40
2022-08-28T22:31:22.917Z,26.41
2022-08-28T22:33:49.949Z,26.42
2022-08-28T22:36:17.467Z,26.45
2022-08-28T22:38:49.782Z,26.47
2022-08-28T22:41:20.294Z,26.44
2022-08-28T22:43:50.481Z,26.40
2022-08-28T22:46:18.800Z,26.37
2022-08-28T22:48:55.529Z,26.37
2022-08-28T22:51:22.574Z,26.32
2022-08-28T22:53:49.202Z,26.30
2022-08-28T22:56:16.804Z,26.34
2022-08-28T22:58:43.942Z,26.39
2022-08-28T23:01:15.243Z,26.38
2022-08-28T23:03:41.943Z,26.33
2022-08-28T23:06:08.638Z,26.42
2022-08-28T23:08:35.415Z,26.45
2022-08-28T23:11:02.285Z,26.40
2022-08-28T23:13:29.842Z,26.32
2022-08-28T23:15:56.577Z,26.26
2022-08-28T23:18:23.159Z,26.23
2022-08-28T23:20:50.735Z,26.20
2022-08-28T23:23:18.667Z,26.19
2022-08-28T23:25:45.225Z,26.13
2022-08-28T23:28:11.936Z,26.11
2022-08-28T23:30:39.175Z,26.10
2022-08-28T23:33:08.561Z,26.11
2022-08-28T23:35:35.635Z,26.11
2022-08-28T23:38:02.251Z,26.10
2022-08-28T23:40:30.583Z,26.08
2022-08-28T23:42:58.062Z,26.11
2022-08-28T23:45:26.156Z,26.05
2022-08-28T23:47:54.034Z,26.06
2022-08-28T23:50:22.658Z,26.04
2022-08-28T23:52:49.728Z,25.99
2022-08-28T23:55:18.193Z,26.03
2022-08-28T23:57:45.789Z,26.01
